หน้าหลัก
METAR-TAF:

METAR-TAF

ท่าอากาศยาน :

Acajutla, เอลซัลวาดอร์

ละติจูด: 13-34N, ลองจิจูด: 089-50W, ความสูง: 15 ม.

การสังเกตสภาพอากาศปัจจุบัน

รายงานได้ทำขึ้นเมื่อ 10 ชั่วโมงและ 37 นาทีที่แล้ว ณ เวลา 22:50 UTC
ลม 6 นอตจากใต้
อุณหภูมิ 27°C
ความชื้น 100%
ความกดอากาศ 1004 hPa
ทัศนวิสัย 10 กม. หรือมากกว่า
มีเมฆกระจายเป็นบางส่วนที่ความสูง 3000 ฟุต
มีเมฆเป็นส่วนมากเว้นเป็นระยะที่ความสูง 4700 ฟุต
ละอองฝนตกหนัก,

METAR: MSAC 162250Z 19006KT 9999 +DZ SCT030 BKN047 27/27 Q1004 A2966

เวลา: 03:27 (09:27 UTC)


TAF: หายไป

สังเกตการณ์สภาพอากาศและพยากรณ์อากาศของสนามบินมากกว่า 4000 แห่ง (รายงาน METAR และ TAF).

สถานีที่ดูได้จะแสดงไว้ด้วยจุดสีเหลืองและสีแดงบนแผนที่.

เลื่อนเมาส์ไปเหนือจุดเพื่อดูชื่อสถานี.

แล้วคลิกเพื่อดูสังเกตการณ์และการพยากรณ์สภาพอากาศ.

ในการเปลี่ยนแผนที่: คลิกที่ปุ่มสีเขียวที่มีกากบาทสีดำเพื่อซูมเข้า; ที่ปุ่มสีเขียวที่มีขีดเพื่อซูมออก; หรือที่ลูกศรสีเขียวเพื่อไปยังแผนที่ที่อยู่ติดกัน.


METAR-TAF: